sensor_id;sensor_type;location;lat;lon;timestamp;pressure;altitude;pressure_sealevel;temperature;humidity
69247;BME280;56358;56.328;43.992;2024-03-08T00:01:54;100289.28;;;-4.52;63.09
69247;BME280;56358;56.328;43.992;2024-03-08T00:03:54;100176.31;;;-5.18;63.36
69247;BME280;56358;56.328;43.992;2024-03-08T00:05:55;100290.16;;;-4.53;63.35
69247;BME280;56358;56.328;43.992;2024-03-08T00:07:56;100277.03;;;-4.51;63.27
69247;BME280;56358;56.328;43.992;2024-03-08T00:09:57;100256.41;;;-4.65;63.39
69247;BME280;56358;56.328;43.992;2024-03-08T00:11:57;100178.66;;;-5.04;63.72
69247;BME280;56358;56.328;43.992;2024-03-08T00:13:58;100267.41;;;-4.48;63.73
69247;BME280;56358;56.328;43.992;2024-03-08T00:15:59;100254.53;;;-4.59;64.17
69247;BME280;56358;56.328;43.992;2024-03-08T00:18:00;100234.53;;;-4.63;64.40
69247;BME280;56358;56.328;43.992;2024-03-08T00:20:00;100259.56;;;-4.49;64.67
69247;BME280;56358;56.328;43.992;2024-03-08T00:22:01;100268.22;;;-4.44;64.97
69247;BME280;56358;56.328;43.992;2024-03-08T00:24:02;100262.16;;;-4.48;64.79
69247;BME280;56358;56.328;43.992;2024-03-08T00:26:02;100231.91;;;-4.61;64.78
69247;BME280;56358;56.328;43.992;2024-03-08T00:28:05;100164.63;;;-5.00;64.94
69247;BME280;56358;56.328;43.992;2024-03-08T00:30:07;100228.34;;;-4.59;65.09
69247;BME280;56358;56.328;43.992;2024-03-08T00:32:08;100249.00;;;-4.45;65.29
69247;BME280;56358;56.328;43.992;2024-03-08T00:34:09;100240.31;;;-4.45;65.37
69247;BME280;56358;56.328;43.992;2024-03-08T00:36:12;100222.16;;;-4.55;65.42
69247;BME280;56358;56.328;43.992;2024-03-08T00:38:13;100244.56;;;-4.40;65.85
69247;BME280;56358;56.328;43.992;2024-03-08T00:40:14;100210.91;;;-4.57;65.76
69247;BME280;56358;56.328;43.992;2024-03-08T00:42:16;100221.22;;;-4.50;65.62
69247;BME280;56358;56.328;43.992;2024-03-08T00:44:16;100232.31;;;-4.38;65.94
69247;BME280;56358;56.328;43.992;2024-03-08T00:46:17;100243.59;;;-4.34;65.95
69247;BME280;56358;56.328;43.992;2024-03-08T00:48:18;100214.34;;;-4.56;66.09
69247;BME280;56358;56.328;43.992;2024-03-08T00:50:18;100212.38;;;-4.43;66.35
69247;BME280;56358;56.328;43.992;2024-03-08T00:52:19;100218.41;;;-4.41;66.43
69247;BME280;56358;56.328;43.992;2024-03-08T00:54:20;100215.75;;;-4.40;66.33
69247;BME280;56358;56.328;43.992;2024-03-08T00:56:20;100204.53;;;-4.45;66.22
69247;BME280;56358;56.328;43.992;2024-03-08T00:58:21;100222.72;;;-4.39;66.32
69247;BME280;56358;56.328;43.992;2024-03-08T01:00:24;100207.97;;;-4.43;66.25
69247;BME280;56358;56.328;43.992;2024-03-08T01:02:25;100207.09;;;-4.42;66.41
69247;BME280;56358;56.328;43.992;2024-03-08T01:04:27;100200.28;;;-4.50;66.44
69247;BME280;56358;56.328;43.992;2024-03-08T01:06:30;100197.88;;;-4.61;66.41
69247;BME280;56358;56.328;43.992;2024-03-08T01:08:30;100179.38;;;-4.52;66.50
69247;BME280;56358;56.328;43.992;2024-03-08T01:10:31;100179.47;;;-4.55;66.51
69247;BME280;56358;56.328;43.992;2024-03-08T01:12:32;100185.47;;;-4.50;66.25
69247;BME280;56358;56.328;43.992;2024-03-08T01:14:33;100181.09;;;-4.49;66.73
69247;BME280;56358;56.328;43.992;2024-03-08T01:16:34;100118.31;;;-4.93;66.70
69247;BME280;56358;56.328;43.992;2024-03-08T01:18:35;100193.16;;;-4.44;66.69
69247;BME280;56358;56.328;43.992;2024-03-08T01:20:36;100167.31;;;-4.58;66.65
69247;BME280;56358;56.328;43.992;2024-03-08T01:22:36;100191.44;;;-4.43;66.84
69247;BME280;56358;56.328;43.992;2024-03-08T01:24:37;100188.81;;;-4.43;66.60
69247;BME280;56358;56.328;43.992;2024-03-08T01:26:38;100185.19;;;-4.38;66.91
69247;BME280;56358;56.328;43.992;2024-03-08T01:28:39;100082.69;;;-4.99;66.78
69247;BME280;56358;56.328;43.992;2024-03-08T01:30:39;100193.06;;;-4.38;67.00
69247;BME280;56358;56.328;43.992;2024-03-08T01:32:41;100179.09;;;-4.38;67.13
69247;BME280;56358;56.328;43.992;2024-03-08T01:34:43;100173.88;;;-4.40;67.46
69247;BME280;56358;56.328;43.992;2024-03-08T01:36:45;100073.97;;;-4.98;67.12
69247;BME280;56358;56.328;43.992;2024-03-08T01:38:46;100172.97;;;-4.37;67.33
69247;BME280;56358;56.328;43.992;2024-03-08T01:40:47;100172.06;;;-4.36;67.58
69247;BME280;56358;56.328;43.992;2024-03-08T01:42:48;100082.44;;;-4.86;67.38
69247;BME280;56358;56.328;43.992;2024-03-08T01:44:49;100165.94;;;-4.35;67.49
69247;BME280;56358;56.328;43.992;2024-03-08T01:46:50;100171.13;;;-4.32;67.51
69247;BME280;56358;56.328;43.992;2024-03-08T01:48:52;100115.78;;;-4.56;67.50
69247;BME280;56358;56.328;43.992;2024-03-08T01:50:54;100153.72;;;-4.34;67.47
69247;BME280;56358;56.328;43.992;2024-03-08T01:52:55;100162.38;;;-4.31;67.38
69247;BME280;56358;56.328;43.992;2024-03-08T01:55:01;100159.94;;;-4.40;67.64
69247;BME280;56358;56.328;43.992;2024-03-08T01:57:04;100150.25;;;-4.35;67.87
69247;BME280;56358;56.328;43.992;2024-03-08T01:59:04;100156.50;;;-4.42;67.80
69247;BME280;56358;56.328;43.992;2024-03-08T02:01:07;100142.44;;;-4.36;67.78
69247;BME280;56358;56.328;43.992;2024-03-08T02:03:09;100137.22;;;-4.38;67.84
69247;BME280;56358;56.328;43.992;2024-03-08T02:05:10;100138.97;;;-4.39;67.93
69247;BME280;56358;56.328;43.992;2024-03-08T02:07:11;100144.28;;;-4.42;67.77
69247;BME280;56358;56.328;43.992;2024-03-08T02:09:12;100133.06;;;-4.47;67.83
69247;BME280;56358;56.328;43.992;2024-03-08T02:11:13;100095.06;;;-4.65;67.98
69247;BME280;56358;56.328;43.992;2024-03-08T02:13:14;100126.13;;;-4.49;68.05
69247;BME280;56358;56.328;43.992;2024-03-08T02:15:15;100142.72;;;-4.50;68.22
69247;BME280;56358;56.328;43.992;2024-03-08T02:17:17;100119.41;;;-4.61;68.33
69247;BME280;56358;56.328;43.992;2024-03-08T02:19:18;100118.41;;;-4.54;68.24
69247;BME280;56358;56.328;43.992;2024-03-08T02:21:20;100108.81;;;-4.55;67.99
69247;BME280;56358;56.328;43.992;2024-03-08T02:23:22;100007.31;;;-5.19;67.77
69247;BME280;56358;56.328;43.992;2024-03-08T02:25:24;100131.47;;;-4.54;67.57
69247;BME280;56358;56.328;43.992;2024-03-08T02:27:24;100112.28;;;-4.55;67.68
69247;BME280;56358;56.328;43.992;2024-03-08T02:29:25;100116.69;;;-4.57;67.89
69247;BME280;56358;56.328;43.992;2024-03-08T02:31:26;100104.50;;;-4.58;67.81
69247;BME280;56358;56.328;43.992;2024-03-08T02:33:27;100108.13;;;-4.63;67.74
69247;BME280;56358;56.328;43.992;2024-03-08T02:35:29;100101.16;;;-4.64;67.79
69247;BME280;56358;56.328;43.992;2024-03-08T02:37:29;100092.56;;;-4.69;67.79
69247;BME280;56358;56.328;43.992;2024-03-08T02:39:30;100084.09;;;-4.81;67.91
69247;BME280;56358;56.328;43.992;2024-03-08T02:41:32;99992.69;;;-5.28;67.69
69247;BME280;56358;56.328;43.992;2024-03-08T02:43:33;99989.19;;;-5.28;67.82
69247;BME280;56358;56.328;43.992;2024-03-08T02:45:34;100031.25;;;-4.97;67.79
69247;BME280;56358;56.328;43.992;2024-03-08T02:47:35;99961.44;;;-5.34;67.80
69247;BME280;56358;56.328;43.992;2024-03-08T02:49:36;100102.16;;;-4.72;67.82
69247;BME280;56358;56.328;43.992;2024-03-08T02:51:38;100071.69;;;-4.73;68.02
69247;BME280;56358;56.328;43.992;2024-03-08T02:53:39;100085.53;;;-4.67;67.84
69247;BME280;56358;56.328;43.992;2024-03-08T02:55:40;100079.44;;;-4.68;67.93
69247;BME280;56358;56.328;43.992;2024-03-08T02:57:43;100033.69;;;-4.89;68.11
69247;BME280;56358;56.328;43.992;2024-03-08T02:59:44;100061.09;;;-4.66;68.16
69247;BME280;56358;56.328;43.992;2024-03-08T03:01:46;100068.97;;;-4.68;68.33
69247;BME280;56358;56.328;43.992;2024-03-08T03:03:46;100014.53;;;-4.90;68.36
69247;BME280;56358;56.328;43.992;2024-03-08T03:05:47;100049.72;;;-4.65;68.12
69247;BME280;56358;56.328;43.992;2024-03-08T03:07:48;100053.22;;;-4.66;68.16
69247;BME280;56358;56.328;43.992;2024-03-08T03:09:49;100056.78;;;-4.69;68.11
69247;BME280;56358;56.328;43.992;2024-03-08T03:11:49;100057.75;;;-4.73;68.44
69247;BME280;56358;56.328;43.992;2024-03-08T03:13:50;100052.56;;;-4.75;68.36
69247;BME280;56358;56.328;43.992;2024-03-08T03:15:50;100033.41;;;-4.75;68.57
69247;BME280;56358;56.328;43.992;2024-03-08T03:17:52;100016.94;;;-4.80;68.79
69247;BME280;56358;56.328;43.992;2024-03-08T03:19:52;100022.06;;;-4.76;68.84
69247;BME280;56358;56.328;43.992;2024-03-08T03:21:53;99991.78;;;-4.86;68.80
69247;BME280;56358;56.328;43.992;2024-03-08T03:23:54;100021.09;;;-4.72;68.84
69247;BME280;56358;56.328;43.992;2024-03-08T03:25:54;100032.44;;;-4.71;68.88
69247;BME280;56358;56.328;43.992;2024-03-08T03:27:57;100014.28;;;-4.79;69.31
69247;BME280;56358;56.328;43.992;2024-03-08T03:29:58;99971.13;;;-4.98;69.14
69247;BME280;56358;56.328;43.992;2024-03-08T03:31:59;100022.69;;;-4.64;69.04
69247;BME280;56358;56.328;43.992;2024-03-08T03:34:00;100002.00;;;-4.75;69.14
69247;BME280;56358;56.328;43.992;2024-03-08T03:36:03;99959.09;;;-5.06;68.88
69247;BME280;56358;56.328;43.992;2024-03-08T03:38:05;100013.97;;;-4.65;69.06
69247;BME280;56358;56.328;43.992;2024-03-08T03:40:09;100010.44;;;-4.64;68.77
69247;BME280;56358;56.328;43.992;2024-03-08T03:42:10;100008.81;;;-4.68;68.84
69247;BME280;56358;56.328;43.992;2024-03-08T03:44:11;100005.44;;;-4.73;69.08
69247;BME280;56358;56.328;43.992;2024-03-08T03:46:11;100010.63;;;-4.72;69.08
69247;BME280;56358;56.328;43.992;2024-03-08T03:48:12;99990.72;;;-4.77;68.93
69247;BME280;56358;56.328;43.992;2024-03-08T03:50:13;100019.09;;;-4.60;68.98
69247;BME280;56358;56.328;43.992;2024-03-08T03:52:14;99924.59;;;-5.22;69.06
69247;BME280;56358;56.328;43.992;2024-03-08T03:54:15;99994.97;;;-4.73;69.32
69247;BME280;56358;56.328;43.992;2024-03-08T03:56:16;100011.34;;;-4.63;69.01
69247;BME280;56358;56.328;43.992;2024-03-08T03:58:17;100020.78;;;-4.58;69.01
69247;BME280;56358;56.328;43.992;2024-03-08T04:00:22;100020.75;;;-4.56;69.23
69247;BME280;56358;56.328;43.992;2024-03-08T04:02:23;100013.09;;;-4.65;69.28
69247;BME280;56358;56.328;43.992;2024-03-08T04:04:24;100010.25;;;-4.55;69.64
69247;BME280;56358;56.328;43.992;2024-03-08T04:06:25;100017.16;;;-4.52;69.34
69247;BME280;56358;56.328;43.992;2024-03-08T04:08:25;100006.81;;;-4.58;69.21
69247;BME280;56358;56.328;43.992;2024-03-08T04:10:26;100015.31;;;-4.47;69.12
69247;BME280;56358;56.328;43.992;2024-03-08T04:12:27;100024.91;;;-4.47;69.39
69247;BME280;56358;56.328;43.992;2024-03-08T04:14:29;99974.72;;;-4.65;69.12
69247;BME280;56358;56.328;43.992;2024-03-08T04:16:30;100002.94;;;-4.40;69.13
69247;BME280;56358;56.328;43.992;2024-03-08T04:18:30;99996.13;;;-4.47;69.01
69247;BME280;56358;56.328;43.992;2024-03-08T04:20:32;100004.69;;;-4.41;69.04
69247;BME280;56358;56.328;43.992;2024-03-08T04:22:32;99998.59;;;-4.41;69.08
69247;BME280;56358;56.328;43.992;2024-03-08T04:24:35;99993.34;;;-4.41;69.13
69247;BME280;56358;56.328;43.992;2024-03-08T04:26:36;99913.59;;;-4.97;69.12
69247;BME280;56358;56.328;43.992;2024-03-08T04:28:37;100001.97;;;-4.36;69.27
69247;BME280;56358;56.328;43.992;2024-03-08T04:30:38;99980.44;;;-4.47;69.08
69247;BME280;56358;56.328;43.992;2024-03-08T04:32:42;99995.00;;;-4.37;69.24
69247;BME280;56358;56.328;43.992;2024-03-08T04:34:43;99991.38;;;-4.31;69.30
69247;BME280;56358;56.328;43.992;2024-03-08T04:36:44;99995.66;;;-4.29;69.26
69247;BME280;56358;56.328;43.992;2024-03-08T04:38:45;99987.84;;;-4.30;69.20
69247;BME280;56358;56.328;43.992;2024-03-08T04:40:46;99983.59;;;-4.34;68.97
69247;BME280;56358;56.328;43.992;2024-03-08T04:42:47;99989.63;;;-4.31;69.21
69247;BME280;56358;56.328;43.992;2024-03-08T04:44:49;99808.09;;;-5.32;69.08
69247;BME280;56358;56.328;43.992;2024-03-08T04:46:50;99970.44;;;-4.31;69.52
69247;BME280;56358;56.328;43.992;2024-03-08T04:48:50;99891.44;;;-4.82;70.07
69247;BME280;56358;56.328;43.992;2024-03-08T04:50:51;99981.78;;;-4.31;70.47
69247;BME280;56358;56.328;43.992;2024-03-08T04:52:51;99944.88;;;-4.56;70.75
69247;BME280;56358;56.328;43.992;2024-03-08T04:54:52;99975.91;;;-4.41;71.49
69247;BME280;56358;56.328;43.992;2024-03-08T04:56:53;99980.34;;;-4.44;72.01
69247;BME280;56358;56.328;43.992;2024-03-08T04:58:54;99972.50;;;-4.44;72.75
69247;BME280;56358;56.328;43.992;2024-03-08T05:00:54;99930.28;;;-4.66;72.74
69247;BME280;56358;56.328;43.992;2024-03-08T05:02:56;99957.91;;;-4.55;73.00
69247;BME280;56358;56.328;43.992;2024-03-08T05:04:56;99982.88;;;-4.41;73.08
69247;BME280;56358;56.328;43.992;2024-03-08T05:06:57;99927.72;;;-4.68;73.38
69247;BME280;56358;56.328;43.992;2024-03-08T05:08:58;99968.78;;;-4.34;73.32
69247;BME280;56358;56.328;43.992;2024-03-08T05:10:58;99921.56;;;-4.65;73.09
69247;BME280;56358;56.328;43.992;2024-03-08T05:13:01;99960.19;;;-4.39;73.07
69247;BME280;56358;56.328;43.992;2024-03-08T05:15:02;99982.72;;;-4.33;73.06
69247;BME280;56358;56.328;43.992;2024-03-08T05:17:04;99954.94;;;-4.39;72.99
69247;BME280;56358;56.328;43.992;2024-03-08T05:19:07;99950.63;;;-4.42;72.60
69247;BME280;56358;56.328;43.992;2024-03-08T05:21:07;99964.91;;;-4.19;72.90
69247;BME280;56358;56.328;43.992;2024-03-08T05:23:09;99943.25;;;-4.26;73.02
69247;BME280;56358;56.328;43.992;2024-03-08T05:25:10;99978.56;;;-4.08;73.04
69247;BME280;56358;56.328;43.992;2024-03-08T05:27:12;99966.41;;;-4.10;72.92
69247;BME280;56358;56.328;43.992;2024-03-08T05:29:14;99980.25;;;-4.05;72.90
69247;BME280;56358;56.328;43.992;2024-03-08T05:31:20;99971.38;;;-3.99;72.80
69247;BME280;56358;56.328;43.992;2024-03-08T05:33:23;99969.63;;;-3.99;72.71
69247;BME280;56358;56.328;43.992;2024-03-08T05:35:24;99986.09;;;-3.94;72.79
69247;BME280;56358;56.328;43.992;2024-03-08T05:37:25;99957.22;;;-3.92;72.81
69247;BME280;56358;56.328;43.992;2024-03-08T05:39:26;99965.84;;;-3.89;72.87
69247;BME280;56358;56.328;43.992;2024-03-08T05:41:27;99961.53;;;-3.91;72.74
69247;BME280;56358;56.328;43.992;2024-03-08T05:43:27;99849.63;;;-4.47;72.84
69247;BME280;56358;56.328;43.992;2024-03-08T05:45:28;99965.59;;;-3.79;72.93
69247;BME280;56358;56.328;43.992;2024-03-08T05:47:28;99961.00;;;-3.71;72.96
69247;BME280;56358;56.328;43.992;2024-03-08T05:49:29;99955.75;;;-3.69;72.68
69247;BME280;56358;56.328;43.992;2024-03-08T05:51:30;99948.78;;;-3.71;72.41
69247;BME280;56358;56.328;43.992;2024-03-08T05:53:31;99940.13;;;-3.74;72.79
69247;BME280;56358;56.328;43.992;2024-03-08T05:55:34;99923.69;;;-3.79;72.33
69247;BME280;56358;56.328;43.992;2024-03-08T05:57:36;99957.06;;;-3.55;72.00
69247;BME280;56358;56.328;43.992;2024-03-08T05:59:40;99950.69;;;-3.46;72.04
69247;BME280;56358;56.328;43.992;2024-03-08T06:01:40;99968.03;;;-3.40;71.70
69247;BME280;56358;56.328;43.992;2024-03-08T06:03:41;99948.00;;;-3.43;71.75
69247;BME280;56358;56.328;43.992;2024-03-08T06:05:45;99953.66;;;-3.27;71.50
69247;BME280;56358;56.328;43.992;2024-03-08T06:07:46;99956.09;;;-3.21;71.20
69247;BME280;56358;56.328;43.992;2024-03-08T06:09:46;99949.09;;;-3.20;70.62
69247;BME280;56358;56.328;43.992;2024-03-08T06:11:48;99950.91;;;-3.22;70.24
69247;BME280;56358;56.328;43.992;2024-03-08T06:13:49;99947.44;;;-3.24;70.17
69247;BME280;56358;56.328;43.992;2024-03-08T06:15:50;99945.50;;;-3.17;70.19
69247;BME280;56358;56.328;43.992;2024-03-08T06:17:51;99945.59;;;-3.21;70.23
69247;BME280;56358;56.328;43.992;2024-03-08T06:19:53;99951.66;;;-3.18;70.05
69247;BME280;56358;56.328;43.992;2024-03-08T06:21:54;99954.50;;;-3.26;70.16
69247;BME280;56358;56.328;43.992;2024-03-08T06:23:55;99955.31;;;-3.24;70.27
69247;BME280;56358;56.328;43.992;2024-03-08T06:25:58;99939.69;;;-3.27;70.57
69247;BME280;56358;56.328;43.992;2024-03-08T06:27:59;99959.50;;;-3.17;70.53
69247;BME280;56358;56.328;43.992;2024-03-08T06:30:00;99955.72;;;-3.08;70.34
69247;BME280;56358;56.328;43.992;2024-03-08T06:32:01;99951.41;;;-3.11;70.04
69247;BME280;56358;56.328;43.992;2024-03-08T06:34:02;99941.94;;;-3.15;70.10
69247;BME280;56358;56.328;43.992;2024-03-08T06:36:03;99958.25;;;-3.05;70.27
69247;BME280;56358;56.328;43.992;2024-03-08T06:38:04;99945.78;;;-2.97;70.42
69247;BME280;56358;56.328;43.992;2024-03-08T06:40:06;99932.59;;;-2.95;69.63
69247;BME280;56358;56.328;43.992;2024-03-08T06:42:08;99922.16;;;-2.97;69.65
69247;BME280;56358;56.328;43.992;2024-03-08T06:44:10;99926.25;;;-2.88;69.68
69247;BME280;56358;56.328;43.992;2024-03-08T06:46:11;99924.41;;;-2.84;69.42
69247;BME280;56358;56.328;43.992;2024-03-08T06:48:19;99858.56;;;-3.32;68.86
69247;BME280;56358;56.328;43.992;2024-03-08T06:50:19;99875.63;;;-3.18;69.05
69247;BME280;56358;56.328;43.992;2024-03-08T06:52:20;99883.09;;;-3.06;69.38
69247;BME280;56358;56.328;43.992;2024-03-08T06:54:20;99944.75;;;-2.64;69.24
69247;BME280;56358;56.328;43.992;2024-03-08T06:56:21;99939.25;;;-2.57;68.89
69247;BME280;56358;56.328;43.992;2024-03-08T06:58:23;99940.81;;;-2.51;68.05
69247;BME280;56358;56.328;43.992;2024-03-08T07:00:23;99934.38;;;-2.41;68.45
69247;BME280;56358;56.328;43.992;2024-03-08T07:02:27;99932.50;;;-2.37;67.93
69247;BME280;56358;56.328;43.992;2024-03-08T07:04:28;99899.00;;;-2.56;68.01
69247;BME280;56358;56.328;43.992;2024-03-08T07:06:34;99915.16;;;-2.43;67.83
69247;BME280;56358;56.328;43.992;2024-03-08T07:08:34;99896.56;;;-2.62;67.41
69247;BME280;56358;56.328;43.992;2024-03-08T07:10:35;99928.59;;;-2.25;67.34
69247;BME280;56358;56.328;43.992;2024-03-08T07:12:38;99924.94;;;-2.21;66.98
69247;BME280;56358;56.328;43.992;2024-03-08T07:14:39;99940.56;;;-2.16;66.97
69247;BME280;56358;56.328;43.992;2024-03-08T07:16:45;99922.19;;;-2.16;66.71
69247;BME280;56358;56.328;43.992;2024-03-08T07:18:46;99940.50;;;-2.15;67.18
69247;BME280;56358;56.328;43.992;2024-03-08T07:20:47;99919.94;;;-2.02;66.96
69247;BME280;56358;56.328;43.992;2024-03-08T07:22:48;99865.09;;;-2.37;66.66
69247;BME280;56358;56.328;43.992;2024-03-08T07:24:51;99919.81;;;-1.99;66.40
69247;BME280;56358;56.328;43.992;2024-03-08T07:26:55;99906.25;;;-2.12;66.20
69247;BME280;56358;56.328;43.992;2024-03-08T07:28:56;99923.63;;;-2.08;66.31
69247;BME280;56358;56.328;43.992;2024-03-08T07:30:58;99900.00;;;-2.34;66.30
69247;BME280;56358;56.328;43.992;2024-03-08T07:33:14;99930.84;;;-2.14;66.93
69247;BME280;56358;56.328;43.992;2024-03-08T07:35:15;99927.38;;;-2.15;67.02
69247;BME280;56358;56.328;43.992;2024-03-08T07:37:19;99922.06;;;-2.13;66.88
69247;BME280;56358;56.328;43.992;2024-03-08T07:39:21;99910.91;;;-2.20;67.15
69247;BME280;56358;56.328;43.992;2024-03-08T07:41:24;99922.06;;;-2.13;66.99
69247;BME280;56358;56.328;43.992;2024-03-08T07:43:24;99913.59;;;-2.22;67.22
69247;BME280;56358;56.328;43.992;2024-03-08T07:45:26;99936.09;;;-2.14;67.09
69247;BME280;56358;56.328;43.992;2024-03-08T07:47:27;99924.81;;;-2.16;67.16
69247;BME280;56358;56.328;43.992;2024-03-08T07:49:27;99919.59;;;-2.18;67.63
69247;BME280;56358;56.328;43.992;2024-03-08T07:51:28;99830.88;;;-2.60;67.29
69247;BME280;56358;56.328;43.992;2024-03-08T07:53:29;99911.28;;;-2.06;67.20
69247;BME280;56358;56.328;43.992;2024-03-08T07:55:30;99915.72;;;-2.06;67.19
69247;BME280;56358;56.328;43.992;2024-03-08T07:57:32;99914.81;;;-2.07;67.08
69247;BME280;56358;56.328;43.992;2024-03-08T07:59:33;99904.44;;;-2.10;67.52
69247;BME280;56358;56.328;43.992;2024-03-08T08:01:34;99893.50;;;-1.97;67.27
69247;BME280;56358;56.328;43.992;2024-03-08T08:03:34;99907.22;;;-1.89;67.43
69247;BME280;56358;56.328;43.992;2024-03-08T08:05:38;99867.78;;;-2.13;67.02
69247;BME280;56358;56.328;43.992;2024-03-08T08:07:39;99896.81;;;-1.92;66.79
69247;BME280;56358;56.328;43.992;2024-03-08T08:09:43;99897.78;;;-1.95;67.06
69247;BME280;56358;56.328;43.992;2024-03-08T08:11:44;99898.41;;;-1.88;67.25
69247;BME280;56358;56.328;43.992;2024-03-08T08:13:45;99916.88;;;-1.90;66.90
69247;BME280;56358;56.328;43.992;2024-03-08T08:15:46;99818.59;;;-2.33;66.82
69247;BME280;56358;56.328;43.992;2024-03-08T08:17:46;99894.88;;;-1.87;67.15
69247;BME280;56358;56.328;43.992;2024-03-08T08:19:52;99876.63;;;-1.90;67.32
69247;BME280;56358;56.328;43.992;2024-03-08T08:21:52;99864.53;;;-1.96;67.23
69247;BME280;56358;56.328;43.992;2024-03-08T08:23:53;99834.31;;;-2.08;67.13
69247;BME280;56358;56.328;43.992;2024-03-08T08:25:55;99897.34;;;-1.82;67.32
69247;BME280;56358;56.328;43.992;2024-03-08T08:27:56;99778.84;;;-2.47;67.01
69247;BME280;56358;56.328;43.992;2024-03-08T08:29:56;99878.94;;;-1.82;67.39
69247;BME280;56358;56.328;43.992;2024-03-08T08:32:00;99898.84;;;-1.75;67.16
69247;BME280;56358;56.328;43.992;2024-03-08T08:34:00;99892.44;;;-1.68;67.21
69247;BME280;56358;56.328;43.992;2024-03-08T08:36:03;99880.91;;;-1.64;67.08
69247;BME280;56358;56.328;43.992;2024-03-08T08:38:04;99787.28;;;-2.14;66.79
69247;BME280;56358;56.328;43.992;2024-03-08T08:40:06;99860.75;;;-1.63;66.87
69247;BME280;56358;56.328;43.992;2024-03-08T08:42:10;99778.03;;;-2.00;67.00
69247;BME280;56358;56.328;43.992;2024-03-08T08:44:11;99854.75;;;-1.45;66.87
69247;BME280;56358;56.328;43.992;2024-03-08T08:46:13;99826.09;;;-1.51;65.94
69247;BME280;56358;56.328;43.992;2024-03-08T08:48:13;99838.00;;;-1.42;65.77
69247;BME280;56358;56.328;43.992;2024-03-08T08:50:14;99884.16;;;-1.11;65.60
69247;BME280;56358;56.328;43.992;2024-03-08T08:52:16;99875.13;;;-1.04;65.61
69247;BME280;56358;56.328;43.992;2024-03-08T08:54:17;99892.38;;;-0.97;65.29
69247;BME280;56358;56.328;43.992;2024-03-08T08:56:17;99760.34;;;-1.73;65.37
69247;BME280;56358;56.328;43.992;2024-03-08T08:58:19;99802.00;;;-1.40;65.23
69247;BME280;56358;56.328;43.992;2024-03-08T09:00:20;99882.94;;;-1.03;64.77
69247;BME280;56358;56.328;43.992;2024-03-08T09:02:22;99731.16;;;-1.89;64.69
69247;BME280;56358;56.328;43.992;2024-03-08T09:04:22;99881.84;;;-0.97;65.05
69247;BME280;56358;56.328;43.992;2024-03-08T09:06:23;99866.63;;;-1.11;65.10
69247;BME280;56358;56.328;43.992;2024-03-08T09:08:25;99885.50;;;-1.01;65.34
69247;BME280;56358;56.328;43.992;2024-03-08T09:10:26;99886.44;;;-1.02;65.11
69247;BME280;56358;56.328;43.992;2024-03-08T09:12:28;99807.00;;;-1.56;65.00
69247;BME280;56358;56.328;43.992;2024-03-08T09:14:28;99894.03;;;-1.16;65.64
69247;BME280;56358;56.328;43.992;2024-03-08T09:16:30;99890.66;;;-1.20;66.01
69247;BME280;56358;56.328;43.992;2024-03-08T09:18:31;99868.34;;;-1.10;66.16
69247;BME280;56358;56.328;43.992;2024-03-08T09:20:32;99869.94;;;-1.06;66.07
69247;BME280;56358;56.328;43.992;2024-03-08T09:22:33;99876.94;;;-1.06;65.58
69247;BME280;56358;56.328;43.992;2024-03-08T09:24:33;99811.03;;;-1.47;65.77
69247;BME280;56358;56.328;43.992;2024-03-08T09:26:34;99881.28;;;-1.05;66.02
69247;BME280;56358;56.328;43.992;2024-03-08T09:28:35;99868.28;;;-1.08;65.42
69247;BME280;56358;56.328;43.992;2024-03-08T09:30:35;99874.38;;;-1.08;65.90
69247;BME280;56358;56.328;43.992;2024-03-08T09:32:38;99896.16;;;-1.04;65.71
69247;BME280;56358;56.328;43.992;2024-03-08T09:34:38;99877.69;;;-1.03;65.93
69247;BME280;56358;56.328;43.992;2024-03-08T09:36:40;99888.22;;;-1.03;65.41
69247;BME280;56358;56.328;43.992;2024-03-08T09:38:41;99794.78;;;-1.57;65.48
69247;BME280;56358;56.328;43.992;2024-03-08T09:40:42;99866.56;;;-1.09;66.21
69247;BME280;56358;56.328;43.992;2024-03-08T09:42:44;99869.59;;;-1.20;66.04
69247;BME280;56358;56.328;43.992;2024-03-08T09:44:46;99790.13;;;-1.50;66.22
69247;BME280;56358;56.328;43.992;2024-03-08T09:46:46;99891.25;;;-0.91;66.10
69247;BME280;56358;56.328;43.992;2024-03-08T09:48:48;99870.09;;;-0.88;65.71
69247;BME280;56358;56.328;43.992;2024-03-08T09:50:48;99881.25;;;-0.81;65.59
69247;BME280;56358;56.328;43.992;2024-03-08T09:52:49;99810.81;;;-1.19;65.36
69247;BME280;56358;56.328;43.992;2024-03-08T09:54:50;99880.13;;;-0.76;65.30
69247;BME280;56358;56.328;43.992;2024-03-08T09:56:51;99873.75;;;-0.70;65.09
69247;BME280;56358;56.328;43.992;2024-03-08T09:58:53;99865.78;;;-0.69;65.29
69247;BME280;56358;56.328;43.992;2024-03-08T10:01:06;99800.66;;;-1.06;65.10
69247;BME280;56358;56.328;43.992;2024-03-08T10:03:06;99869.00;;;-0.62;65.01
69247;BME280;56358;56.328;43.992;2024-03-08T10:05:08;99884.09;;;-0.65;65.00
69247;BME280;56358;56.328;43.992;2024-03-08T10:07:10;99866.59;;;-0.66;65.03
69247;BME280;56358;56.328;43.992;2024-03-08T10:09:12;99860.66;;;-0.72;65.10
69247;BME280;56358;56.328;43.992;2024-03-08T10:11:12;99845.22;;;-0.81;65.17
69247;BME280;56358;56.328;43.992;2024-03-08T10:13:13;99854.91;;;-0.81;65.26
69247;BME280;56358;56.328;43.992;2024-03-08T10:15:16;99879.16;;;-0.73;65.01
69247;BME280;56358;56.328;43.992;2024-03-08T10:17:20;99874.06;;;-0.78;65.49
69247;BME280;56358;56.328;43.992;2024-03-08T10:19:21;99872.38;;;-0.79;65.00
69247;BME280;56358;56.328;43.992;2024-03-08T10:21:22;99842.44;;;-0.98;65.51
69247;BME280;56358;56.328;43.992;2024-03-08T10:23:23;99871.69;;;-0.84;65.74
69247;BME280;56358;56.328;43.992;2024-03-08T10:25:24;99864.63;;;-0.83;66.07
69247;BME280;56358;56.328;43.992;2024-03-08T10:27:24;99856.94;;;-0.88;65.97
69247;BME280;56358;56.328;43.992;2024-03-08T10:29:27;99873.13;;;-0.77;66.07
69247;BME280;56358;56.328;43.992;2024-03-08T10:31:29;99879.16;;;-0.73;65.79